createdAt,value
2018-12-26T00:00:56.680Z,19.55
2018-12-26T00:03:25.576Z,22.62
2018-12-26T00:05:54.521Z,23.20
2018-12-26T00:08:23.537Z,22.42
2018-12-26T00:10:52.563Z,23.25
2018-12-26T00:13:21.605Z,22.70
2018-12-26T00:15:50.625Z,26.33
2018-12-26T00:18:19.759Z,23.70
2018-12-26T00:20:48.661Z,24.55
2018-12-26T00:23:18.304Z,22.15
2018-12-26T00:25:47.168Z,23.35
2018-12-26T00:28:16.032Z,22.87
2018-12-26T00:30:44.969Z,25.02
2018-12-26T00:33:13.974Z,25.27
2018-12-26T00:35:42.836Z,23.40
2018-12-26T00:38:12.027Z,26.00
2018-12-26T00:40:41.270Z,31.27
2018-12-26T00:43:10.573Z,25.48
2018-12-26T00:45:39.917Z,26.55
2018-12-26T00:48:08.872Z,28.40
2018-12-26T00:50:37.825Z,29.50
2018-12-26T00:53:07.064Z,28.07
2018-12-26T00:55:36.101Z,25.72
2018-12-26T00:58:05.126Z,26.50
2018-12-26T01:00:34.718Z,24.60
2018-12-26T01:03:03.905Z,26.82
2018-12-26T01:05:32.999Z,25.60
2018-12-26T01:08:01.918Z,24.18
2018-12-26T01:10:30.933Z,24.65
2018-12-26T01:12:59.864Z,26.17
2018-12-26T01:15:28.822Z,24.02
2018-12-26T01:17:58.272Z,24.70
2018-12-26T01:20:27.429Z,24.80
2018-12-26T01:22:56.669Z,22.58
2018-12-26T01:25:25.982Z,27.65
2018-12-26T01:27:54.919Z,24.65
2018-12-26T01:30:23.885Z,23.75
2018-12-26T01:32:52.821Z,24.47
2018-12-26T01:35:21.673Z,26.00
2018-12-26T01:37:51.076Z,23.45
2018-12-26T01:40:20.062Z,30.27
2018-12-26T01:42:48.941Z,24.85
2018-12-26T01:45:17.949Z,27.82
2018-12-26T01:47:46.898Z,25.27
2018-12-26T01:50:15.910Z,24.53
2018-12-26T01:52:44.861Z,27.15
2018-12-26T01:55:13.812Z,28.90
2018-12-26T01:57:42.710Z,27.55
2018-12-26T02:00:11.716Z,30.68
2018-12-26T02:02:40.730Z,27.75
2018-12-26T02:05:09.724Z,24.82
2018-12-26T02:07:38.757Z,26.12
2018-12-26T02:10:07.962Z,26.27
2018-12-26T02:12:37.317Z,26.37
2018-12-26T02:15:06.405Z,25.60
2018-12-26T02:17:35.245Z,24.82
2018-12-26T02:20:04.234Z,30.80
2018-12-26T02:22:33.141Z,31.07
2018-12-26T02:25:01.982Z,28.57
2018-12-26T02:27:30.896Z,31.55
2018-12-26T02:29:59.718Z,38.85
2018-12-26T02:32:30.400Z,35.60
2018-12-26T02:34:59.336Z,35.38
2018-12-26T02:37:28.171Z,37.33
2018-12-26T02:39:56.993Z,43.85
2018-12-26T02:42:25.821Z,42.15
2018-12-26T02:44:54.739Z,38.50
2018-12-26T02:47:23.674Z,39.20
2018-12-26T02:49:52.505Z,35.90
2018-12-26T02:52:21.393Z,33.63
2018-12-26T02:54:50.320Z,40.55
2018-12-26T02:57:19.238Z,36.77
2018-12-26T02:59:48.064Z,36.00
2018-12-26T03:02:16.966Z,36.23
2018-12-26T03:04:45.796Z,35.40
2018-12-26T03:07:14.812Z,36.05
2018-12-26T03:09:43.680Z,38.10
2018-12-26T03:12:12.512Z,36.98
2018-12-26T03:14:41.358Z,37.15
2018-12-26T03:17:10.517Z,32.35
2018-12-26T03:19:39.380Z,34.73
2018-12-26T03:22:08.268Z,36.63
2018-12-26T03:24:37.464Z,28.23
2018-12-26T03:27:06.352Z,29.85
2018-12-26T03:29:35.195Z,26.62
2018-12-26T03:32:04.098Z,26.90
2018-12-26T03:34:32.980Z,28.05
2018-12-26T03:37:02.228Z,30.68
2018-12-26T03:39:31.186Z,27.55
2018-12-26T03:42:00.245Z,29.92
2018-12-26T03:44:29.572Z,26.35
2018-12-26T03:46:58.456Z,30.32
2018-12-26T03:49:27.849Z,28.60
2018-12-26T03:51:56.829Z,31.50
2018-12-26T03:54:25.918Z,32.80
2018-12-26T03:56:55.285Z,30.40
2018-12-26T03:59:24.393Z,27.67
2018-12-26T04:01:53.704Z,33.38
2018-12-26T04:04:22.884Z,30.95
2018-12-26T04:06:52.297Z,31.07
2018-12-26T04:09:21.188Z,30.17
2018-12-26T04:11:50.160Z,32.83
2018-12-26T04:14:19.228Z,29.43
2018-12-26T04:16:48.311Z,31.07
2018-12-26T04:19:17.477Z,30.10
2018-12-26T04:21:46.681Z,30.63
2018-12-26T04:24:15.778Z,29.90
2018-12-26T04:26:44.875Z,29.25
2018-12-26T04:29:13.719Z,32.65
2018-12-26T04:31:42.552Z,28.17
2018-12-26T04:34:11.453Z,27.20
2018-12-26T04:36:40.646Z,27.50
2018-12-26T04:39:09.552Z,30.68
2018-12-26T04:41:38.380Z,26.68
2018-12-26T04:44:07.209Z,38.80
2018-12-26T04:46:36.037Z,30.92
2018-12-26T04:49:05.262Z,29.45
2018-12-26T04:51:34.225Z,27.58
2018-12-26T04:54:03.394Z,29.92
2018-12-26T04:56:32.574Z,29.92
2018-12-26T04:59:01.404Z,29.67
2018-12-26T05:01:30.296Z,32.45
2018-12-26T05:03:59.143Z,34.73
2018-12-26T05:06:28.002Z,32.40
2018-12-26T05:08:56.829Z,29.67
2018-12-26T05:11:25.841Z,33.25
2018-12-26T05:13:54.745Z,28.70
2018-12-26T05:16:23.653Z,34.03
2018-12-26T05:18:52.616Z,33.60
2018-12-26T05:21:21.533Z,37.40
2018-12-26T05:23:50.521Z,38.58
2018-12-26T05:26:19.357Z,34.98
2018-12-26T05:28:48.469Z,40.30
2018-12-26T05:31:17.296Z,34.40
2018-12-26T05:33:46.833Z,38.27
2018-12-26T05:36:15.661Z,36.25
2018-12-26T05:38:44.629Z,36.13
2018-12-26T05:41:13.809Z,34.75
2018-12-26T05:43:42.709Z,33.92
2018-12-26T05:46:11.541Z,34.17
2018-12-26T05:48:40.377Z,32.85
2018-12-26T05:51:09.458Z,34.65
2018-12-26T05:53:38.277Z,35.48
2018-12-26T05:56:07.117Z,33.02
2018-12-26T05:58:35.963Z,31.07
2018-12-26T06:01:04.842Z,33.25
2018-12-26T06:03:33.657Z,36.13
2018-12-26T06:06:02.513Z,35.57
2018-12-26T06:08:31.408Z,35.35
2018-12-26T06:11:00.601Z,34.73
2018-12-26T06:13:29.425Z,34.48
2018-12-26T06:15:58.589Z,35.30
2018-12-26T06:18:27.437Z,36.83
2018-12-26T06:20:56.333Z,33.55
2018-12-26T06:23:25.180Z,34.65
2018-12-26T06:25:54.499Z,35.38
2018-12-26T06:28:23.344Z,32.98
2018-12-26T06:30:52.257Z,35.35
2018-12-26T06:33:21.446Z,37.42
2018-12-26T06:35:50.273Z,34.03
2018-12-26T06:38:19.101Z,32.93
2018-12-26T06:40:48.200Z,36.00
2018-12-26T06:43:17.061Z,34.70
2018-12-26T06:45:46.289Z,34.65
2018-12-26T06:48:15.128Z,35.10
2018-12-26T06:50:43.958Z,40.03
2018-12-26T06:53:13.073Z,38.00
2018-12-26T06:55:41.903Z,36.50
2018-12-26T06:58:10.751Z,37.40
2018-12-26T07:00:39.586Z,36.38
2018-12-26T07:03:08.424Z,39.27
2018-12-26T07:05:37.314Z,34.18
2018-12-26T07:08:06.144Z,36.63
2018-12-26T07:10:35.404Z,35.80
2018-12-26T07:13:04.265Z,34.18
2018-12-26T07:15:33.405Z,34.58
2018-12-26T07:18:02.257Z,39.25
2018-12-26T07:20:31.234Z,51.98
2018-12-26T07:23:00.051Z,58.35
2018-12-26T07:25:28.889Z,36.83
2018-12-26T07:27:57.728Z,37.63
2018-12-26T07:30:26.542Z,33.00
2018-12-26T07:32:55.389Z,30.40
2018-12-26T07:35:24.222Z,34.98
2018-12-26T07:37:53.425Z,33.48
2018-12-26T07:40:22.334Z,38.10
2018-12-26T07:42:51.164Z,38.40
2018-12-26T07:45:21.604Z,34.67
2018-12-26T07:47:50.437Z,33.25
2018-12-26T07:50:19.261Z,35.63
2018-12-26T07:52:48.109Z,30.85
2018-12-26T07:55:16.944Z,33.60
2018-12-26T07:57:45.770Z,33.98
2018-12-26T08:00:15.057Z,30.97
2018-12-26T08:02:43.889Z,34.92
2018-12-26T08:05:13.210Z,35.10
2018-12-26T08:07:42.022Z,36.28
2018-12-26T08:10:10.936Z,31.87
2018-12-26T08:12:39.744Z,31.95
2018-12-26T08:15:10.786Z,35.73
2018-12-26T08:17:39.792Z,35.90
2018-12-26T08:20:08.762Z,33.33
2018-12-26T08:22:37.661Z,36.70
2018-12-26T08:25:06.573Z,35.95
2018-12-26T08:27:35.489Z,31.35
2018-12-26T08:30:04.629Z,32.60
2018-12-26T08:32:33.452Z,27.40
2018-12-26T08:35:02.405Z,31.33
2018-12-26T08:37:31.303Z,27.77
2018-12-26T08:40:00.537Z,29.18
2018-12-26T08:42:29.370Z,30.65
2018-12-26T08:44:58.522Z,32.38
2018-12-26T08:47:27.340Z,28.45
2018-12-26T08:49:56.261Z,28.80
2018-12-26T08:52:25.088Z,29.15
2018-12-26T08:54:54.201Z,29.42
2018-12-26T08:57:23.021Z,27.22
2018-12-26T08:59:52.206Z,27.80
2018-12-26T09:02:21.104Z,30.08
2018-12-26T09:04:50.209Z,29.32
2018-12-26T09:07:19.028Z,29.57
2018-12-26T09:09:47.864Z,34.25
2018-12-26T09:12:16.685Z,29.90
2018-12-26T09:14:45.534Z,28.87
2018-12-26T09:17:14.461Z,40.50
2018-12-26T09:19:43.700Z,36.50
2018-12-26T09:22:12.522Z,38.23
2018-12-26T09:24:41.361Z,46.57
2018-12-26T09:27:12.746Z,35.33
2018-12-26T09:29:41.601Z,29.50
2018-12-26T09:32:10.464Z,29.77
2018-12-26T09:34:39.309Z,29.48
2018-12-26T09:37:08.124Z,48.90
2018-12-26T09:39:37.765Z,36.93
2018-12-26T09:42:06.681Z,33.33
2018-12-26T09:44:35.497Z,29.90
2018-12-26T09:47:04.411Z,32.00
2018-12-26T09:49:33.334Z,32.75
2018-12-26T09:52:02.248Z,32.90
2018-12-26T09:54:31.064Z,28.65
2018-12-26T09:57:00.008Z,27.70
2018-12-26T09:59:29.210Z,28.50
2018-12-26T10:01:58.048Z,32.85
2018-12-26T10:04:26.941Z,30.30
2018-12-26T10:06:55.793Z,24.40
2018-12-26T10:09:24.613Z,25.62
2018-12-26T10:11:53.465Z,26.67
2018-12-26T10:14:23.413Z,26.95
2018-12-26T10:16:52.572Z,25.92
2018-12-26T10:19:21.772Z,24.90
2018-12-26T10:21:50.689Z,26.40
2018-12-26T10:24:19.594Z,24.35
2018-12-26T10:26:48.740Z,25.68
2018-12-26T10:29:17.557Z,24.60
2018-12-26T10:31:46.469Z,26.20
2018-12-26T10:34:15.308Z,27.00
2018-12-26T10:36:44.225Z,28.25
2018-12-26T10:39:13.041Z,26.65
2018-12-26T10:41:41.880Z,26.95
2018-12-26T10:44:10.717Z,26.17
2018-12-26T10:46:39.566Z,24.77
2018-12-26T10:49:08.397Z,26.62
2018-12-26T10:51:37.249Z,23.53
2018-12-26T10:54:06.077Z,24.90
2018-12-26T10:56:34.909Z,25.55
2018-12-26T10:59:10.110Z,25.82
2018-12-26T11:01:34.476Z,26.75
2018-12-26T11:04:03.721Z,26.50
2018-12-26T11:06:32.584Z,25.25
2018-12-26T11:09:01.396Z,25.25
2018-12-26T11:11:30.597Z,26.25
2018-12-26T11:13:59.696Z,25.45
2018-12-26T11:16:29.070Z,24.65
2018-12-26T11:18:58.953Z,25.27
2018-12-26T11:21:27.982Z,24.85
2018-12-26T11:23:57.208Z,26.27
2018-12-26T11:26:26.096Z,23.02
2018-12-26T11:28:54.949Z,22.77
2018-12-26T11:31:24.104Z,22.32
2018-12-26T11:33:53.007Z,23.90
2018-12-26T11:36:22.271Z,21.85
2018-12-26T11:38:51.460Z,21.62
2018-12-26T11:41:20.393Z,21.12
2018-12-26T11:43:49.280Z,25.45
2018-12-26T11:46:18.100Z,24.57
2018-12-26T11:48:47.328Z,23.85
2018-12-26T11:51:16.150Z,19.05
2018-12-26T11:53:45.345Z,19.60
2018-12-26T11:56:14.264Z,20.47
2018-12-26T11:58:43.195Z,20.77
2018-12-26T12:01:12.176Z,20.32
2018-12-26T12:03:41.169Z,23.15
2018-12-26T12:06:09.984Z,19.42
2018-12-26T12:08:38.968Z,22.40
2018-12-26T12:11:07.940Z,19.37
2018-12-26T12:13:36.948Z,19.30
2018-12-26T12:16:05.984Z,19.37
2018-12-26T12:18:34.985Z,21.75
2018-12-26T12:21:03.961Z,18.70
2018-12-26T12:23:32.869Z,18.62
2018-12-26T12:26:01.713Z,22.00
2018-12-26T12:28:30.625Z,20.27
2018-12-26T12:30:59.458Z,19.15
2018-12-26T12:33:28.600Z,21.10
2018-12-26T12:35:57.426Z,20.20
2018-12-26T12:38:26.413Z,20.77
2018-12-26T12:40:55.410Z,19.37
2018-12-26T12:43:24.397Z,22.22
2018-12-26T12:45:53.372Z,23.45
2018-12-26T12:48:22.349Z,24.10
2018-12-26T12:50:51.532Z,22.67
2018-12-26T12:53:20.360Z,21.10
2018-12-26T12:55:49.274Z,23.23
2018-12-26T12:58:18.624Z,20.70
2018-12-26T13:00:47.588Z,23.07
2018-12-26T13:03:16.817Z,24.95
2018-12-26T13:05:46.194Z,22.75
2018-12-26T13:08:15.024Z,23.07
2018-12-26T13:10:43.928Z,19.23
2018-12-26T13:13:12.762Z,20.68
2018-12-26T13:15:41.955Z,21.00
2018-12-26T13:18:10.780Z,26.52
2018-12-26T13:20:39.683Z,21.62
2018-12-26T13:23:08.510Z,20.77
2018-12-26T13:25:37.424Z,21.68
2018-12-26T13:28:06.317Z,20.92
2018-12-26T13:30:35.177Z,22.32
2018-12-26T13:33:04.389Z,24.02
2018-12-26T13:35:33.617Z,22.67
2018-12-26T13:38:02.859Z,21.50
2018-12-26T13:40:31.978Z,20.25
2018-12-26T13:43:00.821Z,22.20
2018-12-26T13:45:29.704Z,20.60
2018-12-26T13:47:58.528Z,20.55
2018-12-26T13:50:27.437Z,26.12
2018-12-26T13:52:56.324Z,22.65
2018-12-26T13:55:25.256Z,24.45
2018-12-26T13:57:54.087Z,20.77
2018-12-26T14:00:22.921Z,20.80
2018-12-26T14:02:51.748Z,21.62
2018-12-26T14:05:20.568Z,21.93
2018-12-26T14:07:49.409Z,19.15
2018-12-26T14:10:18.323Z,23.12
2018-12-26T14:12:47.384Z,20.57
2018-12-26T14:15:16.249Z,19.90
2018-12-26T14:17:45.152Z,20.68
2018-12-26T14:20:14.074Z,18.57
2018-12-26T14:22:42.892Z,24.00
2018-12-26T14:25:11.749Z,28.30
2018-12-26T14:27:40.668Z,22.45
2018-12-26T14:30:11.293Z,23.30
2018-12-26T14:32:40.543Z,19.25
2018-12-26T14:35:09.444Z,20.88
2018-12-26T14:37:38.276Z,20.10
2018-12-26T14:40:07.289Z,19.42
2018-12-26T14:42:36.116Z,21.10
2018-12-26T14:45:05.378Z,23.40
2018-12-26T14:47:34.929Z,21.23
2018-12-26T14:50:04.338Z,25.00
2018-12-26T14:52:33.157Z,24.47
2018-12-26T14:55:02.091Z,22.32
2018-12-26T14:57:31.110Z,28.10
2018-12-26T15:00:00.169Z,25.75
2018-12-26T15:02:29.060Z,23.98
2018-12-26T15:04:58.294Z,23.50
2018-12-26T15:07:27.781Z,23.05
2018-12-26T15:09:56.697Z,24.95
2018-12-26T15:12:25.540Z,26.07
2018-12-26T15:14:54.433Z,24.32
2018-12-26T15:17:23.281Z,28.20
2018-12-26T15:19:52.285Z,26.27
2018-12-26T15:22:21.130Z,25.62
2018-12-26T15:24:50.033Z,29.48
2018-12-26T15:27:19.156Z,26.37
2018-12-26T15:29:47.992Z,33.10
2018-12-26T15:32:17.193Z,28.30
2018-12-26T15:34:46.027Z,26.48
2018-12-26T15:37:15.712Z,24.60
2018-12-26T15:39:44.546Z,26.75
2018-12-26T15:42:13.388Z,26.40
2018-12-26T15:44:42.212Z,30.37
2018-12-26T15:47:11.126Z,30.37
2018-12-26T15:49:40.298Z,27.45
2018-12-26T15:52:09.429Z,28.90
2018-12-26T15:54:38.328Z,32.80
2018-12-26T15:57:07.289Z,32.33
2018-12-26T15:59:36.472Z,31.12
2018-12-26T16:02:05.453Z,26.85
2018-12-26T16:04:34.293Z,24.33
2018-12-26T16:07:03.236Z,26.37
2018-12-26T16:09:32.149Z,28.70
2018-12-26T16:12:00.989Z,28.32
2018-12-26T16:14:29.876Z,27.80
2018-12-26T16:16:59.031Z,27.50
2018-12-26T16:19:27.948Z,30.80
2018-12-26T16:21:56.826Z,27.65
2018-12-26T16:24:25.657Z,31.25
2018-12-26T16:26:54.561Z,33.90
2018-12-26T16:29:23.406Z,30.83
2018-12-26T16:31:52.243Z,31.48
2018-12-26T16:34:21.465Z,30.57
2018-12-26T16:36:50.945Z,35.92
2018-12-26T16:39:20.239Z,39.00
2018-12-26T16:41:49.441Z,32.70
2018-12-26T16:44:18.449Z,29.07
2018-12-26T16:46:47.416Z,47.08
2018-12-26T16:49:16.541Z,32.00
2018-12-26T16:51:45.464Z,29.07
2018-12-26T16:54:14.606Z,41.18
2018-12-26T16:56:43.429Z,28.47
2018-12-26T16:59:12.269Z,31.77
2018-12-26T17:01:41.425Z,29.35
2018-12-26T17:04:10.337Z,30.15
2018-12-26T17:06:39.578Z,36.70
2018-12-26T17:09:11.249Z,38.50
2018-12-26T17:11:40.164Z,29.95
2018-12-26T17:14:08.994Z,29.67
2018-12-26T17:16:38.108Z,30.43
2018-12-26T17:19:07.058Z,38.73
2018-12-26T17:21:35.937Z,39.27
2018-12-26T17:24:04.925Z,36.40
2018-12-26T17:26:34.162Z,33.83
2018-12-26T17:29:03.009Z,32.70
2018-12-26T17:31:31.829Z,33.55
2018-12-26T17:34:01.069Z,35.90
2018-12-26T17:36:30.678Z,33.33
2018-12-26T17:38:59.848Z,39.88
2018-12-26T17:41:28.665Z,42.55
2018-12-26T17:43:57.500Z,34.10
2018-12-26T17:46:26.341Z,28.05
2018-12-26T17:48:55.216Z,37.30
2018-12-26T17:51:25.093Z,25.70
2018-12-26T17:54:19.097Z,28.67
2018-12-26T17:57:00.786Z,27.22
2018-12-26T18:00:08.969Z,32.48
2018-12-26T18:02:41.242Z,30.97
2018-12-26T18:05:10.100Z,26.52
2018-12-26T18:07:39.005Z,29.20
2018-12-26T18:10:09.068Z,30.88
2018-12-26T18:12:38.064Z,27.93
2018-12-26T18:15:09.470Z,36.80
2018-12-26T18:17:38.693Z,29.23
2018-12-26T18:20:09.808Z,31.65
2018-12-26T18:22:38.985Z,31.35
2018-12-26T18:25:08.050Z,33.10
2018-12-26T18:27:36.944Z,40.98
2018-12-26T18:30:09.266Z,36.73
2018-12-26T18:32:38.490Z,40.73
2018-12-26T18:35:08.598Z,35.90
2018-12-26T18:37:37.526Z,32.58
2018-12-26T18:40:07.925Z,34.20
2018-12-26T18:42:37.133Z,30.05
2018-12-26T18:45:07.661Z,29.87
2018-12-26T18:47:36.619Z,31.60
2018-12-26T18:50:08.384Z,34.45
2018-12-26T18:52:37.232Z,33.40
2018-12-26T18:55:07.163Z,37.40
2018-12-26T18:57:35.996Z,37.28
2018-12-26T19:00:07.989Z,29.80
2018-12-26T19:02:36.901Z,34.10
2018-12-26T19:05:06.751Z,30.52
2018-12-26T19:07:35.680Z,31.05
2018-12-26T19:10:05.041Z,57.05
2018-12-26T19:12:33.960Z,31.97
2018-12-26T19:15:02.874Z,31.15
2018-12-26T19:17:32.154Z,33.10
2018-12-26T19:20:00.985Z,33.78
2018-12-26T19:22:30.192Z,34.05
2018-12-26T19:24:59.102Z,37.63
2018-12-26T19:27:27.945Z,34.70
2018-12-26T19:29:59.508Z,39.65
2018-12-26T19:32:27.422Z,54.35
2018-12-26T19:34:56.261Z,34.23
2018-12-26T19:37:25.810Z,35.30
2018-12-26T19:39:54.637Z,41.42
2018-12-26T19:42:23.877Z,38.97
2018-12-26T19:44:53.004Z,34.65
2018-12-26T19:47:21.844Z,35.33
2018-12-26T19:49:50.701Z,37.93
2018-12-26T19:52:19.828Z,30.72
2018-12-26T19:54:49.092Z,32.63
2018-12-26T19:57:18.110Z,34.80
2018-12-26T19:59:47.265Z,31.57
2018-12-26T20:02:16.174Z,30.00
2018-12-26T20:04:45.381Z,30.15
2018-12-26T20:07:14.233Z,29.65
2018-12-26T20:09:43.064Z,31.60
2018-12-26T20:12:11.930Z,33.50
2018-12-26T20:14:40.988Z,33.92
2018-12-26T20:17:10.403Z,33.33
2018-12-26T20:19:39.373Z,35.50
2018-12-26T20:22:08.215Z,37.67
2018-12-26T20:24:37.707Z,35.25
2018-12-26T20:27:06.914Z,31.20
2018-12-26T20:29:36.100Z,30.65
2018-12-26T20:32:05.077Z,33.23
2018-12-26T20:34:34.387Z,32.78
2018-12-26T20:37:03.576Z,32.98
2018-12-26T20:39:32.410Z,37.20
2018-12-26T20:42:01.416Z,35.75
2018-12-26T20:44:30.238Z,32.90
2018-12-26T20:46:59.642Z,35.38
2018-12-26T20:49:28.630Z,31.30
2018-12-26T20:51:57.457Z,29.55
2018-12-26T20:54:26.656Z,30.08
2018-12-26T20:56:55.628Z,29.20
2018-12-26T20:59:24.506Z,30.80
2018-12-26T21:01:53.724Z,29.92
2018-12-26T21:04:22.561Z,31.07
2018-12-26T21:06:51.464Z,31.53
2018-12-26T21:09:20.448Z,31.27
2018-12-26T21:11:49.608Z,33.63
2018-12-26T21:14:18.442Z,26.93
2018-12-26T21:16:55.039Z,26.70
2018-12-26T21:19:18.304Z,29.77
2018-12-26T21:21:47.217Z,33.37
2018-12-26T21:24:16.053Z,34.92
2018-12-26T21:26:45.260Z,29.82
2018-12-26T21:29:14.148Z,30.80
2018-12-26T21:31:43.265Z,29.10
2018-12-26T21:34:12.476Z,29.10
2018-12-26T21:36:41.302Z,29.40
2018-12-26T21:39:10.129Z,32.10
2018-12-26T21:41:38.956Z,27.42
2018-12-26T21:44:08.219Z,31.25
2018-12-26T21:46:37.201Z,28.47
2018-12-26T21:49:06.058Z,28.00
2018-12-26T21:51:35.312Z,30.45
2018-12-26T21:54:04.224Z,30.48
2018-12-26T21:56:33.124Z,28.75
2018-12-26T21:59:01.973Z,28.33
2018-12-26T22:01:30.882Z,29.98
2018-12-26T22:03:59.736Z,29.32
2018-12-26T22:06:28.634Z,28.10
2018-12-26T22:08:57.470Z,32.73
2018-12-26T22:11:26.304Z,29.67
2018-12-26T22:13:55.800Z,33.30
2018-12-26T22:16:25.029Z,31.33
2018-12-26T22:18:53.897Z,32.03
2018-12-26T22:21:22.728Z,30.15
2018-12-26T22:23:51.878Z,29.72
2018-12-26T22:26:20.712Z,29.02
2018-12-26T22:28:49.582Z,28.32
2018-12-26T22:31:18.425Z,33.83
2018-12-26T22:33:47.248Z,32.73
2018-12-26T22:36:16.161Z,33.25
2018-12-26T22:38:45.064Z,35.52
2018-12-26T22:41:13.918Z,38.45
2018-12-26T22:43:43.305Z,32.03
2018-12-26T22:46:12.226Z,34.75
2018-12-26T22:48:41.057Z,36.67
2018-12-26T22:51:09.910Z,32.05
2018-12-26T22:53:38.738Z,34.43
2018-12-26T22:56:07.897Z,35.03
2018-12-26T22:58:37.190Z,37.63
2018-12-26T23:01:06.568Z,35.48
2018-12-26T23:03:35.404Z,38.05
2018-12-26T23:06:04.317Z,33.02
2018-12-26T23:08:33.140Z,32.83
2018-12-26T23:11:02.056Z,31.80
2018-12-26T23:13:31.036Z,29.82
2018-12-26T23:15:59.971Z,29.20
2018-12-26T23:18:29.193Z,29.67
2018-12-26T23:20:58.602Z,28.42
2018-12-26T23:23:27.524Z,31.15
2018-12-26T23:25:56.369Z,27.62
2018-12-26T23:28:25.476Z,30.00
2018-12-26T23:30:54.320Z,35.95
2018-12-26T23:33:23.217Z,35.08
2018-12-26T23:35:52.135Z,36.30
2018-12-26T23:38:20.983Z,37.90
2018-12-26T23:40:49.892Z,35.65
2018-12-26T23:43:18.784Z,38.53
2018-12-26T23:45:47.633Z,40.30
2018-12-26T23:48:16.553Z,36.83
2018-12-26T23:50:45.696Z,38.00
2018-12-26T23:53:14.533Z,34.40
2018-12-26T23:55:43.373Z,33.00
2018-12-26T23:58:12.225Z,35.25
